TimeEST,TemperatureF,Dew PointF,Humidity,Sea Level PressureIn,VisibilityMPH,Wind Direction,Wind SpeedMPH,Gust SpeedMPH,PrecipitationIn,Events,Conditions,WindDirDegrees,DateUTC
12:53 AM,37.0,19.9,50,30.19,10.0,West,4.6,-,N/A,,Clear,270,2013-02-20 05:53:00
1:53 AM,35.1,21.9,59,30.19,10.0,WNW,5.8,-,N/A,,Clear,290,2013-02-20 06:53:00
2:53 AM,37.0,19.9,50,30.19,10.0,NW,8.1,-,N/A,,Clear,310,2013-02-20 07:53:00
3:53 AM,35.1,19.9,54,30.17,10.0,NW,9.2,-,N/A,,Clear,320,2013-02-20 08:53:00
4:53 AM,33.1,19.9,59,30.17,10.0,NNW,6.9,-,N/A,,Clear,330,2013-02-20 09:53:00
5:53 AM,28.9,21.9,75,30.18,10.0,Calm,Calm,-,N/A,,Clear,0,2013-02-20 10:53:00
6:53 AM,30.0,19.9,66,30.21,10.0,WNW,3.5,-,N/A,,Clear,300,2013-02-20 11:53:00
7:53 AM,32.0,21.0,64,30.23,10.0,NW,5.8,-,N/A,,Clear,310,2013-02-20 12:53:00
8:53 AM,37.9,19.0,47,30.22,10.0,NW,11.5,-,N/A,,Clear,320,2013-02-20 13:53:00
9:53 AM,41.0,16.0,36,30.22,10.0,NNW,11.5,-,N/A,,Clear,330,2013-02-20 14:53:00
10:53 AM,46.0,12.9,26,30.21,10.0,North,10.4,-,N/A,,Clear,360,2013-02-20 15:53:00
11:53 AM,48.0,12.9,24,30.21,10.0,NNW,9.2,-,N/A,,Clear,330,2013-02-20 16:53:00
12:53 PM,53.1,12.9,20,30.19,10.0,NNW,12.7,19.6,N/A,,Clear,330,2013-02-20 17:53:00
3:53 PM,51.1,10.0,19,30.17,10.0,WNW,6.9,-,N/A,,Partly Cloudy,300,2013-02-20 20:53:00
4:53 PM,48.9,9.0,20,30.20,10.0,NW,13.8,18.4,N/A,,Mostly Cloudy,320,2013-02-20 21:53:00
5:53 PM,48.0,10.9,22,30.18,10.0,North,9.2,-,N/A,,Overcast,350,2013-02-20 22:53:00
6:53 PM,46.9,14.0,27,30.12,10.0,Calm,Calm,-,N/A,,Mostly Cloudy,0,2013-02-20 23:53:00
8:53 PM,45.0,19.0,36,30.17,10.0,WNW,3.5,-,N/A,,Clear,300,2013-02-21 01:53:00
9:53 PM,43.0,19.0,38,30.16,10.0,NW,4.6,-,N/A,,Clear,310,2013-02-21 02:53:00
11:53 PM,39.0,19.0,45,30.17,10.0,NW,6.9,-,N/A,,Clear,320,2013-02-21 04:53:00